Stampede Pass, Washington
Current Conditions -  °F | °C
As of 11:40 AM on Friday 31 Oct 2014 (Local Time) from KELN Reporting Station
Light Rain Light Rain  
Wind Chill: 54°   Ceiling: 1300
Heat Index: 54°   Visibility: 5mi
Dew Point: 50°   Wind: 0mph
Humidity: 86%   Direction: NA
Pressure: 29.73"   Gusts: NA
Location:  47.28°N, 121.33°W
Report Text: KELN 311840Z AUTO 00000KT 5SM -RA BR OVC013 12/10 A2973 RMK AO2 RAB05 P0002 T01220100
Loading
Personal Weather Stations






























Interactive Weather Map
Tropical Storm Tracking
New forecast layout! Learn more

10-Day Weather Forecast

Advertisements
Track Severe Weather on mobile